Time;durP1;ratioP1;P1;durP2;ratioP2;P2;SDS_P1;SDS_P2;PMS_P1;PMS_P2;Temp;Humidity;BMP_temperature;BMP_pressure;BME280_temperature;BME280_humidity;BME280_pressure;Samples;Min_cycle;Max_cycle;Signal;HPM_P1;HPM_P2
2022/11/18 00:01:18;;;;;;;7.80;1.58;;;8.40;99.90;;;8.05;100.00;95638.22;4960189;28;20051;-72
2022/11/18 00:03:46;;;;;;;8.02;1.52;;;8.40;99.90;;;7.88;100.00;95631.53;4971816;28;20039;-72
2022/11/18 00:06:16;;;;;;;7.28;1.60;;;8.40;99.90;;;7.93;100.00;95634.66;4973402;28;20069;-71
2022/11/18 00:08:44;;;;;;;9.82;1.80;;;8.50;99.90;;;7.83;100.00;95643.94;4971192;28;20047;-70
2022/11/18 00:14:18;;;;;;;11.10;1.75;;;8.40;99.90;;;8.00;100.00;95648.84;4965870;28;20051;-71
2022/11/18 00:17:02;;;;;;;6.60;1.58;;;8.40;99.90;;;7.97;100.00;95649.88;4958603;28;20087;-70
2022/11/18 00:19:31;;;;;;;7.22;1.75;;;8.50;99.90;;;7.95;100.00;95649.13;4962151;28;20051;-71
2022/11/18 00:22:00;;;;;;;6.78;1.70;;;8.50;99.90;;;7.94;100.00;95649.25;4964297;28;20066;-71
2022/11/18 00:24:27;;;;;;;14.45;2.58;;;8.50;99.90;;;7.97;100.00;95649.88;4977072;28;20046;-72
2022/11/18 00:26:55;;;;;;;9.07;1.73;;;8.60;99.90;;;8.12;100.00;95657.59;4962407;28;20058;-72
2022/11/18 00:29:25;;;;;;;10.73;2.38;;;8.70;99.90;;;8.03;100.00;95659.00;4963858;28;20402;-70
2022/11/18 00:31:51;;;;;;;8.13;1.77;;;8.70;99.90;;;8.10;100.00;95647.34;4973945;28;20510;-70
2022/11/18 00:34:18;;;;;;;6.95;1.50;;;8.70;99.90;;;8.24;100.00;95649.03;4975585;28;20047;-71
2022/11/18 00:36:47;;;;;;;12.95;2.22;;;8.70;99.90;;;8.18;100.00;95647.66;4961755;28;20054;-72
2022/11/18 00:39:16;;;;;;;11.48;2.00;;;8.70;99.90;;;8.15;100.00;95650.47;4962827;28;20053;-72
2022/11/18 00:44:30;;;;;;;9.38;1.58;;;8.70;99.90;;;8.24;100.00;95653.41;4977142;28;20457;-71
2022/11/18 00:46:58;;;;;;;7.15;1.77;;;8.80;99.90;;;8.18;100.00;95664.94;4962036;28;20134;-72
2022/11/18 00:49:25;;;;;;;9.60;1.83;;;8.70;99.90;;;8.11;100.00;95659.31;4962068;28;20944;-71
2022/11/18 00:51:52;;;;;;;10.10;2.30;;;8.80;99.90;;;8.22;100.00;95660.41;4973975;28;20051;-71
2022/11/18 00:54:19;;;;;;;11.25;2.50;;;8.80;99.90;;;8.18;100.00;95668.34;4962396;28;20055;-71
2022/11/18 00:56:47;;;;;;;12.20;2.40;;;8.80;99.90;;;8.16;100.00;95666.78;4961334;28;20118;-71
2022/11/18 00:59:14;;;;;;;8.27;2.40;;;8.80;99.90;;;8.14;100.00;95664.31;4963911;28;20061;-72
2022/11/18 01:01:42;;;;;;;7.53;1.90;;;8.80;99.90;;;8.20;100.00;95668.25;4963036;28;20122;-72
2022/11/18 01:04:09;;;;;;;12.50;2.88;;;8.80;99.90;;;8.13;100.00;95670.41;4963615;28;20158;-72
2022/11/18 01:06:35;;;;;;;9.13;2.20;;;8.80;99.90;;;8.09;100.00;95665.53;4962858;28;20047;-72
2022/11/18 01:09:02;;;;;;;6.32;1.95;;;8.80;99.90;;;8.20;100.00;95672.59;4962346;28;20442;-71
2022/11/18 01:14:15;;;;;;;8.85;2.15;;;8.80;99.90;;;8.21;100.00;95672.50;4963972;28;20097;-71
2022/11/18 01:16:43;;;;;;;13.18;3.00;;;8.80;99.90;;;8.12;100.00;95671.34;4964503;28;20528;-71
2022/11/18 01:19:10;;;;;;;7.80;2.20;;;8.80;99.90;;;8.22;100.00;95674.16;4962155;28;20162;-72
2022/11/18 01:21:37;;;;;;;8.10;2.13;;;8.80;99.90;;;8.22;100.00;95679.34;4962018;28;20200;-71
2022/11/18 01:24:05;;;;;;;7.97;2.83;;;8.80;99.90;;;8.15;100.00;95688.41;4960498;28;20061;-70
2022/11/18 01:26:31;;;;;;;9.40;3.10;;;8.80;99.90;;;8.21;100.00;95685.44;4960677;28;20069;-72
2022/11/18 01:28:58;;;;;;;11.07;2.42;;;8.80;99.90;;;8.30;100.00;95684.84;4975737;28;20058;-72
2022/11/18 01:31:25;;;;;;;13.32;3.78;;;8.80;99.90;;;8.22;100.00;95689.66;4962118;28;20039;-70
2022/11/18 01:33:52;;;;;;;6.35;2.63;;;8.90;99.90;;;8.25;100.00;95694.63;4961952;28;20456;-71
2022/11/18 01:36:23;;;;;;;10.60;3.00;;;8.90;99.90;;;8.25;100.00;95691.22;4961496;28;20523;-71
2022/11/18 01:38:51;;;;;;;10.27;3.03;;;8.90;99.90;;;8.26;100.00;95698.06;4961766;28;20073;-71
2022/11/18 01:41:24;;;;;;;12.73;2.88;;;8.90;99.90;;;8.35;100.00;95693.13;4977038;28;20038;-71
2022/11/18 01:44:22;;;;;;;16.02;3.28;;;8.90;99.90;;;8.24;100.00;95702.50;4976558;28;20051;-71
2022/11/18 01:46:48;;;;;;;11.02;2.83;;;8.90;99.90;;;8.30;100.00;95699.50;4965073;28;20058;-72
2022/11/18 01:49:16;;;;;;;9.82;2.15;;;8.90;99.90;;;8.33;100.00;95702.75;4964126;28;20051;-71
2022/11/18 01:51:55;;;;;;;9.70;2.65;;;8.90;99.90;;;8.41;100.00;95704.84;4964324;28;20058;-71
2022/11/18 01:54:33;;;;;;;13.57;2.17;;;8.90;99.90;;;8.43;100.00;95695.25;4963148;28;20483;-72
2022/11/18 01:57:06;;;;;;;10.43;2.53;;;8.90;99.90;;;8.43;100.00;95697.00;4979259;28;20091;-71
2022/11/18 01:59:38;;;;;;;10.75;3.70;;;8.90;99.90;;;8.29;100.00;95698.69;4963925;28;20069;-72
2022/11/18 02:02:11;;;;;;;12.25;3.35;;;8.90;99.90;;;8.35;100.00;95702.66;4964840;28;20464;-71
2022/11/18 02:04:40;;;;;;;;;;;8.90;99.90;;;8.16;100.00;95703.81;4964911;28;20517;-72
2022/11/18 02:07:09;;;;;;;12.30;3.20;;;8.90;99.90;;;8.26;100.00;95698.88;4962877;28;19926;-72
2022/11/18 02:09:37;;;;;;;9.88;3.15;;;8.90;99.90;;;8.35;100.00;95692.31;4960770;28;20050;-72
2022/11/18 02:12:05;;;;;;;10.60;3.78;;;8.90;99.90;;;8.36;100.00;95697.38;4964164;28;20078;-71
2022/11/18 02:14:37;;;;;;;10.32;3.90;;;8.90;99.90;;;8.47;100.00;95695.91;4962256;28;20361;-71
2022/11/18 02:17:28;;;;;;;18.52;5.32;;;8.90;99.90;;;8.31;100.00;95709.75;4963314;28;20062;-71
2022/11/18 02:20:21;;;;;;;14.55;4.93;;;9.00;99.90;;;8.31;100.00;95711.53;4964455;28;20050;-71
2022/11/18 02:23:35;;;;;;;13.07;5.55;;;9.00;99.90;;;8.14;100.00;95712.56;4976925;28;20058;-71
2022/11/18 02:26:38;;;;;;;8.82;4.18;;;8.90;99.90;;;8.22;100.00;95714.69;4978797;28;20046;-70
2022/11/18 02:29:13;;;;;;;10.15;4.45;;;8.90;99.90;;;8.28;100.00;95717.72;4976143;28;20482;-72
2022/11/18 02:32:10;;;;;;;12.05;4.88;;;8.90;99.90;;;8.13;100.00;95724.66;4979744;28;20057;-71
2022/11/18 02:34:59;;;;;;;12.70;5.22;;;8.90;99.90;;;8.19;100.00;95726.06;4965568;28;20169;-72
2022/11/18 02:37:33;;;;;;;13.38;5.53;;;8.90;99.90;;;8.14;100.00;95728.94;4963282;28;20061;-72
2022/11/18 02:40:23;;;;;;;12.90;7.10;;;8.90;99.90;;;8.06;100.00;95725.16;4962916;28;20054;-71
2022/11/18 02:43:07;;;;;;;20.17;7.45;;;8.90;99.90;;;7.96;100.00;95733.47;4963542;28;20606;-71
2022/11/18 02:45:36;;;;;;;16.05;7.75;;;8.90;99.90;;;7.96;100.00;95738.66;4963370;28;20077;-71
2022/11/18 02:48:08;;;;;;;12.10;5.97;;;8.90;99.90;;;8.07;100.00;95737.97;4979150;28;20054;-71
2022/11/18 02:50:37;;;;;;;12.10;5.57;;;8.90;99.90;;;8.07;100.00;95740.53;4979633;28;20158;-72
2022/11/18 02:53:07;;;;;;;10.27;3.78;;;8.90;99.90;;;8.06;100.00;95744.06;4964749;28;20160;-72
2022/11/18 02:55:37;;;;;;;5.63;2.20;;;8.80;99.90;;;8.04;100.00;95742.50;4965988;28;20389;-72
2022/11/18 02:58:05;;;;;;;3.17;0.88;;;8.80;99.90;;;7.82;100.00;95724.91;4964657;28;20180;-73
2022/11/18 03:00:32;;;;;;;2.88;0.90;;;8.70;99.90;;;7.77;100.00;95745.84;4963201;28;20073;-72
2022/11/18 03:02:59;;;;;;;2.78;0.80;;;8.60;99.90;;;7.57;100.00;95748.78;4959659;28;20101;-72
2022/11/18 03:05:40;;;;;;;1.55;0.50;;;8.40;99.90;;;7.49;100.00;95759.59;4973466;28;20054;-71
2022/11/18 03:08:12;;;;;;;2.95;0.63;;;8.30;99.90;;;7.48;100.00;95751.03;4975934;28;21221;-72
2022/11/18 03:10:53;;;;;;;1.65;0.50;;;8.20;99.90;;;7.35;100.00;95772.50;4977280;28;20145;-73
2022/11/18 03:13:29;;;;;;;2.63;0.75;;;8.20;99.90;;;7.35;100.00;95777.66;4961114;28;20077;-72
2022/11/18 03:16:14;;;;;;;2.10;0.52;;;8.10;99.90;;;7.27;100.00;95778.91;4978764;28;20051;-71
2022/11/18 03:19:00;;;;;;;0.85;0.45;;;8.00;99.90;;;7.25;100.00;95764.44;4975148;28;20141;-72
2022/11/18 03:21:40;;;;;;;2.33;0.55;;;8.00;99.90;;;7.15;100.00;95777.03;4963089;28;20047;-72
2022/11/18 03:24:32;;;;;;;2.20;0.40;;;7.90;99.90;;;7.03;100.00;95788.09;4976978;28;20142;-70
2022/11/18 03:27:13;;;;;;;1.65;0.47;;;7.80;99.90;;;7.04;100.00;95792.31;4975988;28;20051;-72
2022/11/18 03:30:09;;;;;;;2.38;0.50;;;7.70;99.90;;;7.00;100.00;95804.56;4965415;28;20161;-72
2022/11/18 03:32:43;;;;;;;3.30;0.50;;;7.70;99.90;;;6.98;100.00;95800.38;4980031;28;20051;-72
2022/11/18 03:35:23;;;;;;;1.67;0.40;;;7.60;99.90;;;6.99;100.00;95795.16;4976685;28;20574;-72
2022/11/18 03:38:01;;;;;;;1.33;0.57;;;7.70;99.90;;;6.87;100.00;95803.59;4975706;28;20055;-71
2022/11/18 03:40:31;;;;;;;1.13;0.43;;;7.60;99.90;;;6.84;100.00;95796.88;4963131;28;20077;-71
2022/11/18 03:43:14;;;;;;;2.45;0.60;;;7.60;99.90;;;6.84;100.00;95814.06;4959018;28;20073;-71
2022/11/18 03:45:54;;;;;;;1.58;0.60;;;7.60;99.90;;;6.86;100.00;95809.66;4979639;28;20055;-72
2022/11/18 03:48:59;;;;;;;2.90;0.70;;;7.60;99.90;;;6.83;100.00;95815.81;4967114;28;20047;-72
2022/11/18 03:51:36;;;;;;;1.75;0.70;;;7.60;99.90;;;6.78;100.00;95824.75;4965593;28;20078;-71
2022/11/18 03:54:19;;;;;;;4.07;0.90;;;7.50;99.90;;;6.69;100.00;95824.31;4966667;28;20050;-72
2022/11/18 03:56:55;;;;;;;3.90;0.50;;;7.50;99.90;;;6.69;100.00;95834.63;4968670;28;20051;-70
2022/11/18 03:59:40;;;;;;;2.05;0.50;;;7.40;99.90;;;6.62;100.00;95846.22;4981404;28;20043;-71
2022/11/18 04:02:20;;;;;;;1.25;0.60;;;7.40;99.90;;;6.64;100.00;95851.28;4980455;28;20057;-72
2022/11/18 04:04:50;;;;;;;2.20;0.73;;;7.40;99.90;;;6.53;100.00;95854.44;4982978;28;20050;-70
2022/11/18 04:07:26;;;;;;;2.78;0.40;;;7.40;99.90;;;6.44;100.00;95860.09;4967798;28;20365;-71
2022/11/18 04:10:18;;;;;;;1.48;0.43;;;7.30;99.90;;;6.39;100.00;95862.91;4965313;28;20051;-71
2022/11/18 04:13:05;;;;;;;1.30;0.40;;;7.20;99.90;;;6.35;100.00;95863.16;4982703;28;20452;-71
2022/11/18 04:15:37;;;;;;;0.95;0.30;;;7.20;99.90;;;6.28;100.00;95863.47;4967149;28;20062;-72
2022/11/18 04:18:05;;;;;;;1.55;0.30;;;7.20;99.90;;;6.28;100.00;95878.13;4967625;28;20212;-71
2022/11/18 04:20:36;;;;;;;2.55;0.60;;;7.10;99.90;;;6.34;100.00;95875.22;4968055;28;20595;-73
2022/11/18 04:23:05;;;;;;;3.08;0.40;;;7.00;99.90;;;6.25;100.00;95888.59;4980228;28;20451;-71
2022/11/18 04:25:33;;;;;;;1.00;0.40;;;7.00;99.90;;;6.14;100.00;95894.28;4964751;28;20141;-72
2022/11/18 04:28:00;;;;;;;2.65;0.30;;;6.90;99.90;;;6.22;100.00;95881.00;4967724;28;20524;-73
2022/11/18 04:30:27;;;;;;;1.35;0.40;;;6.90;99.90;;;6.20;100.00;95883.69;4965194;28;20776;-73
2022/11/18 04:32:54;;;;;;;1.58;0.47;;;6.90;99.90;;;6.26;100.00;95885.91;4967867;28;20374;-73
2022/11/18 04:35:21;;;;;;;1.80;0.40;;;6.80;99.90;;;6.09;100.00;95875.69;4966035;28;20059;-73
2022/11/18 04:37:48;;;;;;;0.30;0.30;;;6.90;99.90;;;6.06;100.00;95889.53;4967068;28;20393;-73
2022/11/18 04:40:15;;;;;;;3.83;0.40;;;6.90;99.90;;;6.19;100.00;95883.75;4964360;28;20051;-71
2022/11/18 04:42:43;;;;;;;1.23;0.30;;;6.80;99.90;;;6.21;100.00;95887.06;4989925;28;20053;-72
2022/11/18 04:45:10;;;;;;;1.60;0.20;;;6.80;99.90;;;6.04;100.00;95888.78;4974760;28;20050;-73
2022/11/18 04:47:37;;;;;;;0.40;0.30;;;6.80;99.90;;;5.95;100.00;95894.38;4977658;28;20050;-71
2022/11/18 04:50:05;;;;;;;1.35;0.30;;;6.80;99.90;;;5.94;100.00;95895.31;4974053;28;20051;-73
2022/11/18 04:52:32;;;;;;;0.77;0.22;;;6.80;99.90;;;5.84;100.00;95900.06;4975065;28;20050;-72
2022/11/18 04:54:59;;;;;;;1.30;0.30;;;6.70;99.90;;;5.85;100.00;95904.28;4964422;28;20080;-72
2022/11/18 04:57:26;;;;;;;3.28;0.32;;;6.70;99.90;;;5.85;100.00;95904.28;4967499;28;20078;-72
2022/11/18 04:59:53;;;;;;;2.45;0.30;;;6.70;99.90;;;5.84;100.00;95905.22;4975683;28;20481;-72
2022/11/18 05:02:20;;;;;;;1.83;0.30;;;6.60;99.90;;;5.93;100.00;95905.66;4965227;28;20101;-72
2022/11/18 05:04:46;;;;;;;0.90;0.30;;;6.60;99.90;;;5.83;100.00;95905.28;4965603;28;20054;-72
2022/11/18 05:07:15;;;;;;;1.25;0.30;;;6.70;99.90;;;5.80;100.00;95905.47;4967091;28;20150;-71
2022/11/18 05:09:42;;;;;;;0.63;0.32;;;6.60;99.90;;;5.74;100.00;95903.19;4980533;28;20613;-73
2022/11/18 05:15:00;;;;;;;1.98;0.30;;;6.50;99.90;;;5.67;100.00;95918.09;4976508;28;20141;-72
2022/11/18 05:17:26;;;;;;;0.68;0.43;;;6.50;99.90;;;5.63;100.00;95919.16;4966432;28;20467;-72
2022/11/18 05:19:53;;;;;;;1.15;0.20;;;6.50;99.90;;;5.65;100.00;95931.03;4963717;28;20551;-72
2022/11/18 05:22:20;;;;;;;1.63;0.60;;;6.40;99.90;;;5.62;100.00;95930.38;4965333;28;20465;-72
2022/11/18 05:24:48;;;;;;;3.22;0.50;;;6.40;99.90;;;5.58;100.00;95928.84;4963959;28;20054;-72
2022/11/18 05:27:15;;;;;;;0.40;0.30;;;6.40;99.90;;;5.58;100.00;95934.00;4965682;28;20046;-72
2022/11/18 05:29:42;;;;;;;0.52;0.28;;;6.40;99.90;;;5.69;100.00;95933.47;4980403;28;20047;-72
2022/11/18 05:32:10;;;;;;;0.98;0.30;;;6.50;99.90;;;5.66;100.00;95934.47;4964157;28;20062;-71
2022/11/18 05:34:40;;;;;;;1.42;0.50;;;6.40;99.90;;;5.66;100.00;95939.63;4975061;28;20061;-72
2022/11/18 05:37:08;;;;;;;1.20;0.40;;;6.40;99.90;;;5.69;100.00;95936.88;4978750;28;20138;-72
2022/11/18 05:39:35;;;;;;;0.85;0.40;;;6.40;99.90;;;5.79;100.00;95935.53;4963380;28;20134;-72
2022/11/18 05:44:48;;;;;;;0.68;0.40;;;6.50;99.90;;;5.85;100.00;95939.53;4961757;28;20050;-72
2022/11/18 05:47:24;;;;;;;1.10;0.50;;;6.50;99.90;;;5.80;100.00;95947.47;4962132;28;20157;-72
2022/11/18 05:49:50;;;;;;;2.00;0.40;;;6.50;99.90;;;5.84;100.00;95940.44;4976209;28;20050;-72
2022/11/18 05:52:17;;;;;;;2.35;0.80;;;6.50;99.90;;;5.77;100.00;95950.22;4966571;28;20061;-72
2022/11/18 05:54:49;;;;;;;4.07;0.90;;;6.50;99.90;;;5.93;100.00;95954.56;4963733;28;20055;-72
2022/11/18 05:57:16;;;;;;;1.13;0.50;;;6.60;99.90;;;5.92;100.00;95951.19;4965058;28;20046;-72
2022/11/18 05:59:43;;;;;;;1.08;0.50;;;6.50;99.90;;;5.80;100.00;95956.94;4962707;28;20064;-72
2022/11/18 06:02:17;;;;;;;0.85;0.40;;;6.50;99.90;;;5.84;100.00;95955.91;4962179;28;20623;-72
2022/11/18 06:04:56;;;;;;;2.03;0.47;;;6.50;99.90;;;5.74;100.00;95959.81;4966394;28;20069;-71
2022/11/18 06:07:29;;;;;;;2.40;0.40;;;6.50;99.90;;;5.85;100.00;95958.38;4963384;28;20070;-70
2022/11/18 06:09:58;;;;;;;;;;;6.50;99.90;;;5.77;100.00;95969.94;4961829;28;20146;-72
2022/11/18 06:12:38;;;;;;;0.80;0.40;;;6.50;99.90;;;5.72;100.00;95971.94;4960208;28;20005;-72
2022/11/18 06:15:18;;;;;;;0.75;0.40;;;6.50;99.90;;;5.78;100.00;95975.03;4976337;28;20423;-71
2022/11/18 06:17:53;;;;;;;1.23;0.40;;;6.50;99.90;;;5.92;100.00;95971.78;4964301;28;20043;-72
2022/11/18 06:20:21;;;;;;;1.20;0.40;;;6.50;99.90;;;5.96;100.00;95975.91;4980234;28;20065;-71
2022/11/18 06:22:52;;;;;;;2.15;0.60;;;6.50;99.90;;;5.84;100.00;95982.47;4966302;28;20054;-72
2022/11/18 06:25:20;;;;;;;2.25;0.40;;;6.60;99.90;;;5.97;100.00;95982.72;4964715;28;20523;-71
2022/11/18 06:27:49;;;;;;;1.85;0.77;;;6.60;99.90;;;5.96;100.00;95990.53;4966364;28;20718;-71
2022/11/18 06:30:16;;;;;;;1.23;0.75;;;6.60;99.90;;;6.01;100.00;95999.69;4966763;28;20055;-72
2022/11/18 06:32:43;;;;;;;3.10;1.00;;;6.60;99.90;;;6.01;100.00;95994.53;4962389;28;20051;-71
2022/11/18 06:35:10;;;;;;;2.78;0.90;;;6.70;99.90;;;6.06;100.00;95999.44;4963181;28;20392;-72
2022/11/18 06:37:37;;;;;;;1.98;1.05;;;6.70;99.90;;;6.09;100.00;95999.31;4966404;28;20501;-70
2022/11/18 06:40:05;;;;;;;3.25;1.67;;;6.70;99.90;;;6.05;100.00;96006.34;4963632;28;20460;-72
2022/11/18 06:45:17;;;;;;;1.98;1.30;;;6.80;99.90;;;6.15;100.00;96011.88;4963780;28;20046;-72
2022/11/18 06:47:44;;;;;;;4.10;2.28;;;6.80;99.90;;;6.17;100.00;96022.09;4965231;28;20536;-70
2022/11/18 06:50:11;;;;;;;3.53;2.05;;;6.90;99.90;;;6.31;100.00;96016.25;4964236;28;20472;-72
2022/11/18 06:52:38;;;;;;;4.65;2.00;;;6.90;99.90;;;6.20;100.00;96029.66;4962505;28;20464;-71
2022/11/18 06:55:07;;;;;;;5.90;2.75;;;6.90;99.90;;;6.22;100.00;96022.69;4966720;28;20064;-72
2022/11/18 06:57:34;;;;;;;4.47;2.10;;;6.90;99.90;;;6.34;100.00;96035.00;4967749;28;20645;-71
2022/11/18 07:00:02;;;;;;;3.03;1.70;;;6.90;99.90;;;6.43;100.00;96024.22;4967523;28;20074;-71
2022/11/18 07:02:29;;;;;;;2.70;1.15;;;6.90;99.90;;;6.32;100.00;96035.94;4966892;28;20081;-72
2022/11/18 07:04:56;;;;;;;2.97;1.35;;;6.90;99.90;;;6.30;100.00;96035.22;4969893;28;20556;-71
2022/11/18 07:07:23;;;;;;;4.55;2.00;;;7.00;99.90;;;6.38;100.00;96040.81;4968362;28;20080;-72
2022/11/18 07:09:50;;;;;;;4.07;2.05;;;7.00;99.90;;;6.29;100.00;96049.81;4966848;28;20047;-70
2022/11/18 07:12:17;;;;;;;3.92;2.67;;;7.00;99.90;;;6.38;100.00;96048.53;4967645;28;20051;-72
2022/11/18 07:14:45;;;;;;;3.97;2.30;;;7.00;99.90;;;6.38;100.00;96054.50;4965499;28;20055;-72
2022/11/18 07:17:12;;;;;;;4.68;2.55;;;7.00;99.90;;;6.35;100.00;96056.44;4967176;28;20078;-71
2022/11/18 07:19:39;;;;;;;4.28;2.00;;;7.00;99.90;;;6.48;100.00;96062.63;4966664;28;20078;-71
2022/11/18 07:22:07;;;;;;;5.25;2.20;;;7.10;99.90;;;6.52;100.00;96065.88;4968470;28;20058;-71
2022/11/18 07:24:34;;;;;;;3.85;2.47;;;7.10;99.90;;;6.52;100.00;96071.84;4964868;28;20097;-70
2022/11/18 07:27:00;;;;;;;7.18;2.90;;;7.10;99.90;;;6.66;100.00;96069.44;4974492;28;20055;-71
2022/11/18 07:29:28;;;;;;;8.13;3.53;;;7.20;99.90;;;6.54;100.00;96074.38;4964371;28;20543;-70
2022/11/18 07:31:54;;;;;;;6.28;3.90;;;7.20;99.90;;;6.51;100.00;96077.94;4963601;28;20085;-71
2022/11/18 07:34:21;;;;;;;6.35;3.58;;;7.20;99.90;;;6.64;100.00;96081.56;4961623;28;20057;-72
2022/11/18 07:36:48;;;;;;;7.47;4.18;;;7.20;99.90;;;6.56;100.00;96081.13;4963939;28;20047;-71
2022/11/18 07:39:15;;;;;;;22.67;16.98;;;7.30;99.90;;;6.58;100.00;96084.44;4963855;28;20137;-73
2022/11/18 07:41:43;;;;;;;10.18;8.18;;;7.30;99.90;;;6.58;100.00;96091.34;4963994;28;20047;-70
2022/11/18 07:44:13;;;;;;;8.65;5.05;;;7.30;99.90;;;6.58;100.00;96094.75;4962175;28;20062;-71
2022/11/18 07:46:40;;;;;;;7.68;5.57;;;7.30;99.90;;;6.54;100.00;96100.97;4964611;28;20075;-71
2022/11/18 07:49:09;;;;;;;7.88;5.28;;;7.40;99.90;;;6.65;100.00;96105.59;4963362;28;20141;-70
2022/11/18 07:51:39;;;;;;;5.88;4.18;;;7.40;99.90;;;6.73;100.00;96106.06;4961599;28;20050;-71
2022/11/18 07:54:12;;;;;;;4.80;3.20;;;7.30;99.90;;;6.87;100.00;96108.75;4962457;28;20061;-71
2022/11/18 07:56:39;;;;;;;8.65;4.95;;;7.40;99.90;;;6.68;100.00;96110.59;4961080;28;20070;-71
2022/11/18 07:59:06;;;;;;;5.47;3.70;;;7.50;99.90;;;6.83;100.00;96112.41;4963983;28;20491;-72
2022/11/18 08:01:33;;;;;;;6.55;4.70;;;7.60;99.90;;;6.73;100.00;96118.94;4962398;28;20042;-71
2022/11/18 08:04:14;;;;;;;6.45;3.95;;;7.60;99.90;;;6.88;100.00;96118.16;4961810;28;20113;-71
2022/11/18 08:06:41;;;;;;;7.43;4.40;;;7.70;99.90;;;6.91;100.00;96109.41;4964666;28;20038;-71
2022/11/18 08:09:08;;;;;;;6.15;3.92;;;7.70;99.90;;;7.10;100.00;96110.16;4963551;28;20496;-71
2022/11/18 08:11:36;;;;;;;6.07;3.55;;;7.70;99.90;;;7.18;100.00;96112.31;4975538;28;20051;-71
2022/11/18 08:14:03;;;;;;;6.00;3.25;;;7.80;99.90;;;7.24;100.00;96114.56;4977319;28;20062;-72
2022/11/18 08:16:30;;;;;;;4.80;4.15;;;7.90;99.90;;;7.30;100.00;96118.59;4964127;28;20051;-72
2022/11/18 08:18:58;;;;;;;7.78;4.38;;;7.90;99.90;;;7.37;100.00;96117.34;4962855;28;20206;-72
2022/11/18 08:21:25;;;;;;;5.68;3.47;;;8.10;99.90;;;7.53;100.00;96122.53;4965041;28;20086;-72
2022/11/18 08:23:55;;;;;;;6.25;4.00;;;8.20;99.90;;;7.32;100.00;96125.34;4964342;28;20505;-71
2022/11/18 08:26:24;;;;;;;4.90;3.22;;;8.30;99.90;;;7.63;100.00;96128.84;4964893;28;20139;-71
2022/11/18 08:28:51;;;;;;;4.30;2.92;;;8.40;99.90;;;7.64;100.00;96122.78;4978723;28;20069;-72
2022/11/18 08:31:25;;;;;;;5.38;3.58;;;8.40;99.90;;;7.62;100.00;96126.34;4963166;28;20128;-71
2022/11/18 08:34:05;;;;;;;7.05;3.08;;;8.40;99.90;;;7.82;100.00;96120.09;4967707;28;20054;-71
2022/11/18 08:36:35;;;;;;;7.30;4.43;;;8.50;99.90;;;7.48;100.00;96135.69;4965213;28;20551;-70
2022/11/18 08:39:05;;;;;;;5.28;3.20;;;8.50;99.90;;;7.61;100.00;96129.84;4967795;28;20077;-71
2022/11/18 08:41:34;;;;;;;6.88;3.78;;;8.60;99.90;;;7.84;100.00;96129.44;4966363;28;20057;-71
2022/11/18 08:44:01;;;;;;;7.22;3.53;;;8.70;99.90;;;7.93;100.00;96120.34;4964711;28;20054;-71
2022/11/18 08:46:29;;;;;;;7.68;4.47;;;8.60;99.90;;;7.74;100.00;96136.03;4966057;28;20050;-71
2022/11/18 08:48:57;;;;;;;4.78;3.63;;;8.70;99.90;;;7.91;100.00;96132.50;4966643;28;20129;-70
2022/11/18 08:51:24;;;;;;;7.57;4.22;;;;;;;7.88;100.00;96135.28;4963942;28;20047;-71
2022/11/18 08:53:51;;;;;;;7.35;3.75;;;8.90;99.90;;;7.90;100.00;96131.69;4965293;28;20053;-71
2022/11/18 08:56:20;;;;;;;8.13;4.50;;;8.90;99.90;;;7.88;100.00;96130.94;4965731;28;20507;-72
2022/11/18 08:58:47;;;;;;;6.65;4.22;;;8.90;99.90;;;8.06;100.00;96136.84;4965785;28;20058;-71
2022/11/18 09:01:14;;;;;;;6.10;3.03;;;8.90;99.90;;;8.21;100.00;96142.06;4964783;28;20061;-70
2022/11/18 09:03:41;;;;;;;6.63;3.63;;;9.00;99.90;;;8.14;100.00;96149.31;4963942;28;20101;-71
2022/11/18 09:06:14;;;;;;;7.20;4.03;;;8.90;99.90;;;7.92;100.00;96157.44;4967125;28;20051;-69
2022/11/18 09:08:42;;;;;;;8.38;3.75;;;8.90;99.90;;;8.09;100.00;96156.50;4963053;28;20098;-72
2022/11/18 09:11:19;;;;;;;7.85;3.50;;;9.00;99.90;;;7.89;100.00;96155.88;4965574;28;20059;-69
2022/11/18 09:13:51;;;;;;;4.90;2.63;;;9.00;99.90;;;8.09;100.00;96159.09;4967416;28;20043;-72
2022/11/18 09:16:37;;;;;;;6.43;2.67;;;9.10;99.90;;;8.02;100.00;96160.34;4965733;28;20740;-69
2022/11/18 09:19:04;;;;;;;5.88;2.40;;;9.10;99.90;;;8.22;100.00;96161.84;4965391;28;20058;-72
2022/11/18 09:21:52;;;;;;;8.93;3.80;;;9.20;99.90;;;8.23;100.00;96164.31;4966042;28;20062;-71
2022/11/18 09:24:18;;;;;;;9.05;3.47;;;9.30;99.90;;;8.07;100.00;96160.91;4965261;28;20743;-72
2022/11/18 09:26:47;;;;;;;6.85;2.17;;;9.20;99.90;;;8.24;100.00;96167.75;4979139;28;20444;-71
2022/11/18 09:29:13;;;;;;;5.53;2.45;;;9.10;99.90;;;7.97;100.00;96176.94;4966717;28;20054;-71
2022/11/18 09:31:40;;;;;;;4.63;2.75;;;9.00;99.90;;;8.07;100.00;96164.34;4964866;28;20057;-72
2022/11/18 09:34:09;;;;;;;7.38;3.25;;;9.00;99.90;;;8.00;100.00;96170.75;4966087;28;20062;-70
2022/11/18 09:36:36;;;;;;;4.47;2.45;;;9.00;99.90;;;7.96;100.00;96179.63;4966205;28;20047;-71
2022/11/18 09:39:03;;;;;;;4.88;2.42;;;8.90;99.90;;;7.94;100.00;96186.63;4963167;28;20050;-70
2022/11/18 09:41:46;;;;;;;6.00;2.88;;;8.90;99.90;;;8.06;100.00;96195.44;4965062;28;20055;-71
2022/11/18 09:44:41;;;;;;;5.63;2.83;;;9.00;99.90;;;8.11;100.00;96190.84;4977851;28;20528;-71
2022/11/18 09:47:33;;;;;;;7.68;2.88;;;9.00;99.90;;;8.03;100.00;96200.75;4965091;28;20047;-71
2022/11/18 09:50:24;;;;;;;11.13;3.17;;;9.10;99.90;;;8.01;100.00;96211.19;4963378;28;20096;-70
2022/11/18 09:53:24;;;;;;;7.60;4.47;;;9.00;99.90;;;7.86;100.00;96206.84;4963048;28;20314;-70
2022/11/18 09:55:52;;;;;;;4.13;1.88;;;9.00;99.90;;;7.97;100.00;96218.28;4963953;28;20074;-70
2022/11/18 09:58:34;;;;;;;6.80;3.60;;;8.90;99.90;;;7.86;100.00;96223.19;4964216;28;20121;-71
2022/11/18 10:01:03;;;;;;;3.78;1.70;;;8.90;99.90;;;7.77;100.00;96221.09;4980331;28;20425;-71
2022/11/18 10:03:32;;;;;;;2.97;1.58;;;8.90;99.90;;;7.99;100.00;96225.94;4975779;28;20039;-70
2022/11/18 10:06:08;;;;;;;2.83;0.90;;;8.90;99.90;;;7.72;100.00;96234.25;4976448;28;20670;-71
2022/11/18 10:08:59;;;;;;;4.15;1.17;;;9.00;99.90;;;7.97;100.00;96226.03;4965074;28;20046;-72
2022/11/18 10:11:34;;;;;;;3.50;0.95;;;9.00;99.90;;;8.16;100.00;96233.63;4965094;28;20549;-70
2022/11/18 10:14:38;;;;;;;2.15;0.75;;;9.10;99.90;;;8.35;100.00;96236.03;4963239;28;20428;-71
2022/11/18 10:17:31;;;;;;;4.25;1.13;;;9.20;99.90;;;8.45;100.00;96240.72;4959879;28;20066;-71
2022/11/18 10:20:21;;;;;;;3.15;1.00;;;9.20;99.90;;;8.41;100.00;96249.56;4964249;28;20527;-71
2022/11/18 10:23:13;;;;;;;3.58;0.77;;;9.40;99.90;;;8.58;100.00;96247.72;4957544;28;20062;-71
2022/11/18 10:25:40;;;;;;;3.17;0.90;;;9.70;99.90;;;8.89;100.00;96251.16;4959166;28;20076;-72
2022/11/18 10:28:28;;;;;;;3.45;0.88;;;9.90;99.90;;;8.66;100.00;96259.38;4964340;28;20448;-71
2022/11/18 10:31:10;;;;;;;4.45;0.98;;;10.00;99.90;;;8.99;100.00;96256.66;4964312;28;20517;-71
2022/11/18 10:33:38;;;;;;;3.90;0.67;;;10.00;99.90;;;8.95;100.00;96270.69;4956220;28;20042;-69
2022/11/18 10:36:26;;;;;;;2.72;0.70;;;10.10;99.90;;;8.68;100.00;96257.56;4964744;28;20477;-71
2022/11/18 10:39:14;;;;;;;3.92;1.00;;;10.30;99.90;;;8.85;100.00;96264.34;4962259;28;20130;-72
2022/11/18 10:41:48;;;;;;;2.80;0.93;;;10.10;99.90;;;8.72;100.00;96266.81;4963018;28;20051;-70
2022/11/18 10:44:38;;;;;;;3.90;0.90;;;9.90;99.90;;;8.48;100.00;96277.56;4957932;28;20050;-70
2022/11/18 10:47:30;;;;;;;4.13;1.10;;;9.90;99.90;;;8.54;100.00;96279.00;4976918;28;20059;-72
2022/11/18 10:50:40;;;;;;;3.65;0.90;;;9.90;99.90;;;8.63;100.00;96282.84;4950404;28;20050;-72
2022/11/18 10:53:34;;;;;;;4.05;0.95;;;9.80;99.90;;;8.68;100.00;96288.59;4964319;28;20061;-72
2022/11/18 10:56:03;;;;;;;2.65;0.60;;;9.70;99.90;;;8.26;100.00;96287.41;4963357;28;20059;-71
2022/11/18 10:58:38;;;;;;;4.05;1.17;;;9.50;99.90;;;8.25;100.00;96285.72;4962378;28;20051;-72
2022/11/18 11:01:20;;;;;;;3.28;1.10;;;9.30;99.90;;;7.90;100.00;96293.63;4963243;28;20065;-72
2022/11/18 11:04:15;;;;;;;3.70;1.10;;;9.20;99.90;;;7.98;100.00;96294.03;4976437;28;20105;-72
2022/11/18 11:06:43;;;;;;;4.65;1.13;;;9.10;99.90;;;8.10;100.00;96285.66;4973978;28;20055;-71